createdAt,value
2019-05-03T00:02:29.895Z,27.37
2019-05-03T00:05:23.135Z,28.97
2019-05-03T00:07:55.831Z,28.87
2019-05-03T00:10:27.271Z,29.47
2019-05-03T00:12:58.986Z,32.17
2019-05-03T00:15:58.229Z,29.87
2019-05-03T00:18:29.840Z,27.03
2019-05-03T00:21:02.150Z,31.57
2019-05-03T00:23:36.900Z,31.33
2019-05-03T00:26:08.046Z,33.53
2019-05-03T00:28:42.755Z,34.33
2019-05-03T00:31:13.805Z,36.33
2019-05-03T00:33:46.581Z,38.53
2019-05-03T00:36:23.710Z,36.57
2019-05-03T00:38:58.350Z,37.20
2019-05-03T00:41:29.695Z,46.53
2019-05-03T00:44:04.755Z,36.97
2019-05-03T00:46:35.792Z,32.97
2019-05-03T00:49:11.960Z,37.83
2019-05-03T00:51:47.047Z,36.30
2019-05-03T00:54:17.954Z,33.80
2019-05-03T00:56:48.790Z,37.90
2019-05-03T00:59:22.265Z,32.10
2019-05-03T01:01:53.621Z,37.77
2019-05-03T01:04:24.881Z,39.63
2019-05-03T01:06:55.858Z,44.20
2019-05-03T01:09:28.074Z,36.67
2019-05-03T01:11:59.092Z,36.07
2019-05-03T01:14:31.618Z,34.43
2019-05-03T01:17:02.767Z,39.00
2019-05-03T01:19:34.965Z,39.67
2019-05-03T01:22:05.972Z,35.43
2019-05-03T01:24:37.062Z,39.07
2019-05-03T01:27:08.040Z,43.27
2019-05-03T01:29:39.760Z,36.43
2019-05-03T01:32:11.575Z,43.03
2019-05-03T01:34:45.863Z,39.53
2019-05-03T01:37:23.091Z,42.57
2019-05-03T01:39:58.349Z,43.17
2019-05-03T01:42:29.338Z,43.10
2019-05-03T01:45:01.787Z,41.43
2019-05-03T01:47:55.319Z,41.80
2019-05-03T01:50:39.213Z,41.20
2019-05-03T01:53:12.532Z,41.03
2019-05-03T01:55:52.880Z,44.57
2019-05-03T01:58:25.150Z,38.90
2019-05-03T02:01:03.332Z,38.37
2019-05-03T02:03:41.837Z,43.10
2019-05-03T02:06:12.981Z,39.57
2019-05-03T02:08:44.150Z,39.93
2019-05-03T02:11:15.584Z,41.03
2019-05-03T02:13:46.716Z,41.20
2019-05-03T02:16:17.829Z,38.00
2019-05-03T02:18:48.691Z,41.10
2019-05-03T02:21:21.504Z,39.47
2019-05-03T02:23:52.419Z,39.27
2019-05-03T02:26:25.507Z,42.07
2019-05-03T02:29:01.723Z,44.90
2019-05-03T02:31:32.969Z,40.70
2019-05-03T02:34:03.870Z,36.07
2019-05-03T02:36:34.953Z,44.47
2019-05-03T02:39:13.569Z,40.93
2019-05-03T02:41:47.851Z,43.83
2019-05-03T02:44:20.040Z,40.33
2019-05-03T02:47:01.569Z,41.43
2019-05-03T02:49:42.520Z,42.60
2019-05-03T02:52:31.576Z,39.33
2019-05-03T02:55:07.585Z,38.80
2019-05-03T02:57:38.620Z,39.13
2019-05-03T03:00:16.351Z,35.40
2019-05-03T03:02:48.395Z,35.27
2019-05-03T03:05:19.667Z,36.87
2019-05-03T03:07:55.975Z,34.83
2019-05-03T03:10:28.012Z,33.37
2019-05-03T03:13:00.442Z,31.03
2019-05-03T03:15:36.333Z,31.63
2019-05-03T03:18:11.682Z,29.83
2019-05-03T03:20:45.008Z,29.03
2019-05-03T03:23:19.295Z,29.63
2019-05-03T03:25:55.630Z,29.67
2019-05-03T03:28:28.111Z,28.67
2019-05-03T03:31:30.979Z,28.23
2019-05-03T03:34:08.266Z,27.27
2019-05-03T03:36:58.906Z,25.67
2019-05-03T03:39:18.946Z,25.67
2019-05-03T03:41:50.736Z,24.97
2019-05-03T03:44:21.968Z,24.17
2019-05-03T03:46:56.110Z,21.63
2019-05-03T03:49:28.998Z,22.17
2019-05-03T03:52:06.072Z,21.93
2019-05-03T03:54:40.336Z,23.50
2019-05-03T03:57:15.787Z,21.53
2019-05-03T03:59:46.943Z,21.87
2019-05-03T04:02:19.438Z,21.20
2019-05-03T04:04:50.804Z,20.83
2019-05-03T04:07:21.775Z,20.20
2019-05-03T04:09:56.089Z,17.53
2019-05-03T04:12:27.127Z,21.53
2019-05-03T04:15:37.042Z,19.03
2019-05-03T04:18:27.391Z,18.30
2019-05-03T04:21:00.309Z,18.97
2019-05-03T04:23:35.693Z,18.20
2019-05-03T04:26:07.080Z,14.93
2019-05-03T04:28:39.550Z,21.97
2019-05-03T04:31:15.066Z,15.23
2019-05-03T04:33:46.189Z,17.17
2019-05-03T04:36:17.210Z,7.90
2019-05-03T04:38:48.362Z,5.70
2019-05-03T04:41:19.499Z,5.30
2019-05-03T04:43:51.571Z,4.97
2019-05-03T04:46:26.303Z,3.63
2019-05-03T04:48:58.427Z,4.43
2019-05-03T04:51:29.826Z,3.30
2019-05-03T04:54:37.782Z,5.23
2019-05-03T04:57:09.477Z,4.43
2019-05-03T04:59:40.070Z,4.33
2019-05-03T05:02:11.415Z,5.30
2019-05-03T05:04:46.247Z,3.97
2019-05-03T05:07:20.472Z,4.63
2019-05-03T05:09:51.325Z,3.93
2019-05-03T05:12:25.260Z,6.90
2019-05-03T05:14:56.646Z,4.40
2019-05-03T05:17:52.849Z,5.60
2019-05-03T05:20:35.030Z,5.20
2019-05-03T05:23:06.118Z,7.23
2019-05-03T05:25:42.139Z,6.37
2019-05-03T05:28:37.913Z,5.33
2019-05-03T05:31:09.171Z,5.30
2019-05-03T05:33:40.272Z,6.40
2019-05-03T05:36:12.524Z,5.70
2019-05-03T05:38:45.055Z,6.77
2019-05-03T05:41:17.860Z,6.43
2019-05-03T05:43:49.135Z,8.27
2019-05-03T05:46:21.899Z,5.90
2019-05-03T05:48:55.376Z,6.93
2019-05-03T05:51:26.080Z,5.63
2019-05-03T05:54:06.748Z,5.87
2019-05-03T05:56:56.188Z,7.67
2019-05-03T05:59:49.315Z,7.27
2019-05-03T06:02:22.654Z,4.47
2019-05-03T06:04:56.590Z,7.87
2019-05-03T06:07:50.159Z,7.93
2019-05-03T06:10:27.114Z,9.13
2019-05-03T06:13:21.982Z,8.53
2019-05-03T06:16:15.606Z,6.33
2019-05-03T06:19:14.677Z,7.33
2019-05-03T06:22:05.217Z,6.43
2019-05-03T06:24:49.856Z,6.87
2019-05-03T06:27:32.344Z,7.87
2019-05-03T06:30:15.009Z,6.70
2019-05-03T06:32:55.218Z,6.27
2019-05-03T06:35:34.584Z,6.60
2019-05-03T06:38:05.819Z,7.30
2019-05-03T06:40:36.976Z,9.17
2019-05-03T06:43:13.013Z,8.83
2019-05-03T06:45:50.424Z,4.80
2019-05-03T06:48:22.393Z,8.63
2019-05-03T06:51:00.313Z,5.70
2019-05-03T06:53:30.048Z,7.97
2019-05-03T06:56:01.524Z,6.67
2019-05-03T06:58:34.279Z,9.63
2019-05-03T07:01:29.124Z,8.90
2019-05-03T07:04:11.321Z,8.20
2019-05-03T07:06:59.999Z,9.90
2019-05-03T07:09:45.075Z,5.63
2019-05-03T07:12:15.978Z,7.10
2019-05-03T07:14:46.870Z,5.13
2019-05-03T07:17:19.081Z,6.33
2019-05-03T07:19:54.594Z,9.67
2019-05-03T07:22:26.734Z,9.07
2019-05-03T07:24:57.632Z,6.13
2019-05-03T07:27:31.234Z,7.37
2019-05-03T07:30:05.866Z,4.70
2019-05-03T07:32:55.809Z,6.90
2019-05-03T07:35:28.896Z,7.13
2019-05-03T07:38:00.986Z,8.03
2019-05-03T07:40:49.825Z,9.37
2019-05-03T07:43:24.554Z,16.77
2019-05-03T07:45:58.146Z,5.10
2019-05-03T07:48:31.166Z,8.77
2019-05-03T07:51:02.093Z,7.60
2019-05-03T07:53:36.435Z,5.07
2019-05-03T07:56:14.970Z,4.73
2019-05-03T07:58:59.962Z,8.53
2019-05-03T08:01:31.626Z,9.30
2019-05-03T08:04:09.298Z,5.70
2019-05-03T08:06:45.308Z,5.57
2019-05-03T08:09:17.685Z,8.43
2019-05-03T08:11:49.333Z,4.97
2019-05-03T08:14:25.374Z,7.50
2019-05-03T08:16:57.215Z,7.83
2019-05-03T08:19:28.446Z,5.83
2019-05-03T08:21:59.437Z,6.17
2019-05-03T08:24:30.379Z,6.80
2019-05-03T08:27:06.584Z,6.57
2019-05-03T08:29:41.984Z,4.53
2019-05-03T08:32:35.275Z,11.33
2019-05-03T08:35:24.386Z,5.10
2019-05-03T08:37:57.418Z,11.87
2019-05-03T08:40:45.667Z,6.30
2019-05-03T08:43:22.443Z,4.43
2019-05-03T08:45:56.121Z,7.93
2019-05-03T08:48:28.838Z,4.40
2019-05-03T08:51:01.239Z,6.67
2019-05-03T08:53:36.347Z,4.03
2019-05-03T08:56:15.712Z,3.50
2019-05-03T08:58:55.753Z,3.97
2019-05-03T09:01:28.659Z,4.23
2019-05-03T09:04:04.837Z,8.43
2019-05-03T09:06:36.172Z,5.07
2019-05-03T09:09:15.055Z,4.43
2019-05-03T09:11:47.724Z,4.13
2019-05-03T09:14:24.320Z,6.60
2019-05-03T09:16:56.032Z,6.10
2019-05-03T09:19:32.091Z,4.57
2019-05-03T09:22:06.562Z,3.97
2019-05-03T09:24:37.724Z,6.43
2019-05-03T09:27:10.045Z,3.13
2019-05-03T09:29:44.018Z,6.83
2019-05-03T09:32:27.779Z,4.43
2019-05-03T09:35:00.528Z,6.63
2019-05-03T09:37:35.473Z,5.20
2019-05-03T09:40:15.285Z,3.47
2019-05-03T09:42:57.090Z,3.97
2019-05-03T09:45:29.588Z,6.03
2019-05-03T09:48:02.994Z,6.80
2019-05-03T09:50:35.655Z,5.97
2019-05-03T09:53:09.024Z,5.23
2019-05-03T09:55:44.716Z,5.17
2019-05-03T09:58:15.414Z,9.10
2019-05-03T10:00:49.763Z,7.77
2019-05-03T10:03:22.216Z,5.67
2019-05-03T10:05:56.102Z,7.10
2019-05-03T10:08:37.914Z,5.00
2019-05-03T10:11:15.474Z,5.80
2019-05-03T10:13:56.315Z,5.00
2019-05-03T10:16:31.499Z,3.97
2019-05-03T10:19:14.329Z,7.33
2019-05-03T10:21:46.232Z,4.30
2019-05-03T10:24:17.559Z,4.93
2019-05-03T10:26:51.357Z,4.87
2019-05-03T10:29:25.219Z,4.43
2019-05-03T10:32:09.421Z,5.63
2019-05-03T10:34:43.033Z,6.63
2019-05-03T10:37:30.661Z,4.40
2019-05-03T10:40:08.104Z,3.17
2019-05-03T10:42:39.429Z,3.30
2019-05-03T10:45:17.994Z,7.87
2019-05-03T10:47:59.502Z,4.10
2019-05-03T10:50:31.093Z,4.97
2019-05-03T10:53:30.316Z,3.53
2019-05-03T10:56:27.986Z,6.80
2019-05-03T10:59:07.081Z,3.53
2019-05-03T11:02:00.730Z,2.93
2019-05-03T11:04:32.046Z,2.57
2019-05-03T11:07:07.152Z,6.60
2019-05-03T11:09:49.508Z,3.17
2019-05-03T11:12:16.845Z,5.27
2019-05-03T11:14:49.613Z,7.43
2019-05-03T11:17:21.324Z,4.40
2019-05-03T11:19:56.755Z,3.73
2019-05-03T11:22:27.716Z,3.83
2019-05-03T11:25:08.282Z,4.43
2019-05-03T11:27:55.229Z,5.60
2019-05-03T11:30:35.574Z,3.90
2019-05-03T11:33:21.643Z,3.50
2019-05-03T11:36:01.311Z,3.73
2019-05-03T11:38:45.345Z,3.77
2019-05-03T11:41:30.333Z,3.33
2019-05-03T11:43:53.718Z,5.80
2019-05-03T11:46:27.306Z,4.17
2019-05-03T11:49:05.555Z,3.57
2019-05-03T11:51:36.102Z,4.30
2019-05-03T11:54:07.044Z,3.10
2019-05-03T11:56:40.504Z,5.20
2019-05-03T11:59:14.717Z,4.07
2019-05-03T12:02:10.648Z,3.20
2019-05-03T12:04:45.228Z,3.33
2019-05-03T12:07:38.845Z,7.63
2019-05-03T12:10:17.471Z,6.03
2019-05-03T12:12:46.126Z,5.03
2019-05-03T12:15:18.504Z,5.30
2019-05-03T12:17:58.143Z,3.67
2019-05-03T12:20:31.762Z,4.37
2019-05-03T12:23:08.485Z,4.13
2019-05-03T12:25:41.705Z,1.93
2019-05-03T12:28:15.300Z,3.80
2019-05-03T12:30:49.666Z,2.93
2019-05-03T12:33:26.132Z,4.33
2019-05-03T12:36:00.816Z,3.93
2019-05-03T12:38:34.889Z,3.80
2019-05-03T12:41:07.678Z,4.83
2019-05-03T12:43:39.211Z,3.77
2019-05-03T12:46:12.372Z,4.47
2019-05-03T12:48:44.804Z,2.97
2019-05-03T12:51:20.364Z,2.83
2019-05-03T12:53:51.501Z,2.60
2019-05-03T12:56:32.586Z,4.37
2019-05-03T12:59:21.205Z,7.73
2019-05-03T13:02:16.134Z,5.50
2019-05-03T13:04:52.038Z,5.33
2019-05-03T13:07:36.540Z,4.37
2019-05-03T13:10:07.826Z,3.10
2019-05-03T13:12:50.658Z,3.20
2019-05-03T13:15:21.482Z,2.43
2019-05-03T13:17:55.768Z,5.90
2019-05-03T13:20:28.099Z,3.47
2019-05-03T13:23:06.197Z,5.23
2019-05-03T13:25:52.750Z,3.70
2019-05-03T13:28:34.390Z,4.80
2019-05-03T13:31:11.985Z,4.60
2019-05-03T13:33:48.539Z,5.13
2019-05-03T13:36:35.908Z,3.87
2019-05-03T13:39:14.841Z,2.93
2019-05-03T13:41:47.380Z,6.07
2019-05-03T13:44:21.501Z,8.87
2019-05-03T13:49:59.405Z,4.27
2019-05-03T13:52:34.617Z,4.40
2019-05-03T13:55:08.565Z,5.27
2019-05-03T13:57:43.044Z,5.20
2019-05-03T14:00:18.199Z,4.33
2019-05-03T14:02:52.814Z,4.63
2019-05-03T14:05:24.927Z,5.40
2019-05-03T14:08:01.042Z,6.70
2019-05-03T14:10:36.003Z,3.07
2019-05-03T14:13:18.127Z,3.80
2019-05-03T14:15:50.046Z,3.17
2019-05-03T14:18:22.619Z,8.00
2019-05-03T14:21:26.612Z,5.13
2019-05-03T14:24:18.432Z,4.67
2019-05-03T14:26:51.184Z,3.00
2019-05-03T14:29:22.111Z,7.07
2019-05-03T14:31:54.556Z,4.67
2019-05-03T14:34:27.020Z,4.60
2019-05-03T14:37:00.622Z,8.97
2019-05-03T14:39:42.357Z,7.27
2019-05-03T14:42:15.229Z,6.13
2019-05-03T14:44:50.117Z,4.03
2019-05-03T14:47:21.267Z,5.03
2019-05-03T14:49:54.452Z,4.33
2019-05-03T14:52:28.562Z,4.07
2019-05-03T14:55:11.490Z,8.23
2019-05-03T14:57:48.281Z,7.07
2019-05-03T15:00:36.819Z,5.63
2019-05-03T15:03:15.183Z,3.87
2019-05-03T15:05:47.326Z,3.73
2019-05-03T15:08:28.272Z,3.63
2019-05-03T15:11:07.224Z,5.10
2019-05-03T15:13:45.580Z,3.50
2019-05-03T15:16:24.908Z,3.30
2019-05-03T15:19:06.751Z,2.63
2019-05-03T15:21:49.522Z,6.47
2019-05-03T15:24:30.741Z,5.50
2019-05-03T15:27:04.688Z,9.57
2019-05-03T15:29:35.588Z,5.77
2019-05-03T15:32:11.562Z,6.90
2019-05-03T15:34:47.596Z,5.13
2019-05-03T15:37:25.011Z,3.70
2019-05-03T15:39:59.027Z,3.23
2019-05-03T15:42:30.867Z,3.90
2019-05-03T15:45:30.474Z,7.90
2019-05-03T15:48:26.261Z,2.87
2019-05-03T15:51:01.281Z,8.33
2019-05-03T15:53:32.655Z,5.13
2019-05-03T15:56:08.087Z,5.10
2019-05-03T15:58:39.583Z,4.13
2019-05-03T16:01:15.305Z,3.87
2019-05-03T16:03:49.879Z,2.83
2019-05-03T16:06:28.764Z,7.23
2019-05-03T16:09:05.375Z,5.57
2019-05-03T16:11:40.669Z,6.23
2019-05-03T16:14:12.993Z,4.60
2019-05-03T16:16:47.395Z,3.50
2019-05-03T16:19:18.781Z,7.67
2019-05-03T16:21:52.088Z,5.43
2019-05-03T16:24:25.785Z,4.17
2019-05-03T16:27:17.764Z,5.40
2019-05-03T16:29:49.398Z,4.57
2019-05-03T16:32:20.886Z,4.93
2019-05-03T16:34:56.424Z,3.57
2019-05-03T16:37:27.627Z,4.47
2019-05-03T16:40:05.100Z,5.10
2019-05-03T16:42:41.486Z,2.77
2019-05-03T16:45:25.593Z,5.47
2019-05-03T16:48:01.088Z,7.53
2019-05-03T16:50:37.488Z,5.80
2019-05-03T16:53:09.510Z,4.03
2019-05-03T16:55:44.786Z,6.23
2019-05-03T16:58:22.088Z,3.33
2019-05-03T17:00:55.458Z,7.30
2019-05-03T17:03:41.478Z,4.60
2019-05-03T17:06:32.327Z,4.97
2019-05-03T17:09:25.248Z,7.10
2019-05-03T17:12:18.752Z,5.70
2019-05-03T17:15:02.504Z,5.70
2019-05-03T17:17:39.069Z,3.67
2019-05-03T17:20:14.463Z,5.97
2019-05-03T17:22:45.704Z,3.80
2019-05-03T17:25:21.337Z,5.07
2019-05-03T17:28:15.717Z,4.10
2019-05-03T17:30:50.612Z,3.20
2019-05-03T17:33:27.524Z,3.67
2019-05-03T17:36:12.638Z,7.27
2019-05-03T17:38:46.905Z,4.37
2019-05-03T17:41:37.197Z,3.93
2019-05-03T17:44:18.325Z,11.50
2019-05-03T17:47:04.292Z,3.13
2019-05-03T17:49:40.597Z,5.47
2019-05-03T17:52:39.606Z,3.97
2019-05-03T17:55:41.821Z,5.87
2019-05-03T17:58:38.529Z,4.13
2019-05-03T18:02:07.015Z,5.13
2019-05-03T18:05:14.721Z,2.70
2019-05-03T18:08:03.266Z,14.80
2019-05-03T18:10:40.537Z,4.87
2019-05-03T18:13:15.173Z,7.83
2019-05-03T18:15:51.856Z,5.43
2019-05-03T18:18:24.730Z,4.93
2019-05-03T18:21:19.133Z,7.77
2019-05-03T18:25:17.184Z,5.90
2019-05-03T18:28:09.185Z,3.00
2019-05-03T18:30:45.732Z,4.00
2019-05-03T18:33:19.158Z,4.60
2019-05-03T18:35:55.060Z,4.83
2019-05-03T18:38:45.626Z,7.43
2019-05-03T18:41:29.968Z,7.87
2019-05-03T18:44:22.236Z,6.67
2019-05-03T18:47:01.212Z,4.80
2019-05-03T18:49:32.994Z,8.33
2019-05-03T18:52:05.156Z,9.33
2019-05-03T18:54:37.085Z,8.30
2019-05-03T18:57:08.337Z,7.93
2019-05-03T18:59:45.567Z,6.77
2019-05-03T19:02:26.932Z,8.70
2019-05-03T19:05:00.552Z,7.43
2019-05-03T19:07:48.739Z,4.93
2019-05-03T19:10:32.396Z,5.00
2019-05-03T19:13:28.783Z,3.93
2019-05-03T19:16:14.953Z,6.27
2019-05-03T19:18:46.738Z,7.07
2019-05-03T19:21:19.465Z,7.60
2019-05-03T19:23:57.285Z,7.30
2019-05-03T19:26:44.920Z,4.10
2019-05-03T19:29:22.410Z,7.70
2019-05-03T19:31:58.203Z,6.23
2019-05-03T19:34:50.225Z,4.13
2019-05-03T19:37:26.214Z,5.93
2019-05-03T19:40:02.542Z,3.67
2019-05-03T19:42:51.082Z,5.67
2019-05-03T19:45:25.728Z,3.93
2019-05-03T19:48:17.476Z,6.67
2019-05-03T19:50:57.910Z,9.43
2019-05-03T19:53:58.128Z,4.23
2019-05-03T19:56:42.155Z,5.00
2019-05-03T19:59:40.540Z,7.17
2019-05-03T20:02:35.169Z,4.13
2019-05-03T20:05:30.153Z,4.87
2019-05-03T20:08:40.859Z,7.70
2019-05-03T20:11:41.837Z,7.17
2019-05-03T20:14:17.099Z,5.33
2019-05-03T20:16:55.860Z,4.83
2019-05-03T20:19:34.751Z,11.93
2019-05-03T20:22:59.028Z,9.40
2019-05-03T20:25:40.867Z,6.73
2019-05-03T20:28:19.615Z,12.90
2019-05-03T20:31:02.431Z,5.50
2019-05-03T20:33:36.026Z,6.60
2019-05-03T20:36:09.177Z,6.30
2019-05-03T20:38:52.121Z,6.07
2019-05-03T20:41:34.998Z,7.57
2019-05-03T20:44:30.053Z,6.53
2019-05-03T20:47:19.279Z,9.23
2019-05-03T20:50:15.326Z,7.83
2019-05-03T20:53:18.209Z,7.37
2019-05-03T20:55:51.994Z,6.20
2019-05-03T20:58:36.067Z,4.80
2019-05-03T21:01:12.566Z,5.13
2019-05-03T21:04:01.003Z,8.13
2019-05-03T21:06:35.871Z,8.37
2019-05-03T21:09:11.952Z,6.47
2019-05-03T21:11:45.966Z,6.30
2019-05-03T21:14:24.521Z,5.73
2019-05-03T21:17:25.268Z,7.97
2019-05-03T21:20:08.591Z,7.10
2019-05-03T21:22:56.240Z,5.00
2019-05-03T21:26:02.289Z,6.00
2019-05-03T21:28:27.244Z,4.77
2019-05-03T21:31:05.552Z,6.33
2019-05-03T21:33:46.247Z,7.87
2019-05-03T21:36:28.330Z,4.87
2019-05-03T21:39:14.599Z,11.33
2019-05-03T21:41:55.577Z,5.30
2019-05-03T21:44:49.145Z,7.83
2019-05-03T21:47:35.145Z,6.50
2019-05-03T21:50:10.161Z,7.70
2019-05-03T21:52:57.502Z,5.37
2019-05-03T21:55:28.926Z,5.77
2019-05-03T21:58:05.207Z,12.93
2019-05-03T22:00:54.756Z,11.37
2019-05-03T22:03:28.876Z,10.60
2019-05-03T22:06:00.253Z,6.73
2019-05-03T22:08:35.578Z,9.13
2019-05-03T22:11:10.023Z,7.33
2019-05-03T22:13:42.076Z,8.50
2019-05-03T22:16:19.344Z,10.40
2019-05-03T22:18:51.898Z,8.37
2019-05-03T22:21:38.251Z,8.57
2019-05-03T22:24:28.758Z,7.67
2019-05-03T22:27:04.864Z,8.30
2019-05-03T22:29:39.241Z,6.20
2019-05-03T22:32:11.937Z,6.33
2019-05-03T22:34:43.551Z,10.17
2019-05-03T22:37:16.680Z,6.00
2019-05-03T22:39:51.443Z,8.40
2019-05-03T22:42:25.325Z,7.27
2019-05-03T22:45:05.875Z,8.67
2019-05-03T22:47:37.057Z,7.40
2019-05-03T22:50:08.486Z,6.80
2019-05-03T22:52:39.425Z,8.30
2019-05-03T22:55:11.327Z,8.17
2019-05-03T22:57:44.498Z,10.27
2019-05-03T23:00:15.748Z,10.47
2019-05-03T23:02:48.340Z,8.33
2019-05-03T23:05:19.220Z,11.40
2019-05-03T23:07:50.409Z,8.33
2019-05-03T23:10:21.275Z,10.63
2019-05-03T23:12:54.522Z,7.00
2019-05-03T23:15:25.566Z,9.87
2019-05-03T23:17:56.628Z,11.57
2019-05-03T23:20:49.733Z,8.27
2019-05-03T23:23:40.088Z,7.90
2019-05-03T23:26:11.351Z,10.87
2019-05-03T23:28:42.352Z,9.10
2019-05-03T23:31:14.737Z,11.00
2019-05-03T23:33:49.427Z,7.90
2019-05-03T23:36:32.168Z,10.13
2019-05-03T23:38:54.558Z,10.67
2019-05-03T23:41:26.304Z,8.73
2019-05-03T23:43:57.111Z,6.93
2019-05-03T23:46:34.789Z,9.10
2019-05-03T23:49:05.874Z,8.80
2019-05-03T23:51:49.948Z,10.37
2019-05-03T23:54:21.171Z,7.30
2019-05-03T23:56:52.073Z,7.60
2019-05-03T23:59:23.213Z,7.90
